sensor_id;sensor_type;location;lat;lon;timestamp;pressure;altitude;pressure_sealevel;temperature;humidity
3697;BME280;60662;48.810;8.872;2023-09-19T06:42:31;96503.72;;;14.92;97.04
3697;BME280;60662;48.810;8.872;2023-09-19T06:44:56;96512.75;;;15.02;96.23
3697;BME280;60662;48.810;8.872;2023-09-19T06:47:14;96511.75;;;15.17;95.73
3697;BME280;60662;48.810;8.872;2023-09-19T06:49:36;96513.47;;;15.04;95.04
3697;BME280;60662;48.810;8.872;2023-09-19T06:51:59;96528.59;;;15.00;95.12
3697;BME280;60662;48.810;8.872;2023-09-19T06:54:28;96516.53;;;14.83;95.87
3697;BME280;60662;48.810;8.872;2023-09-19T06:57:02;96526.13;;;14.84;97.32
3697;BME280;60662;48.810;8.872;2023-09-19T06:59:35;96541.09;;;14.97;97.45
3697;BME280;60662;48.810;8.872;2023-09-19T07:02:08;96523.38;;;14.86;95.81
3697;BME280;60662;48.810;8.872;2023-09-19T07:04:41;96535.22;;;14.93;95.23
3697;BME280;60662;48.810;8.872;2023-09-19T07:07:13;96553.63;;;14.79;95.18
3697;BME280;60662;48.810;8.872;2023-09-19T07:09:45;96559.25;;;14.87;96.51
3697;BME280;60662;48.810;8.872;2023-09-19T07:12:12;96554.38;;;14.81;95.69
3697;BME280;60662;48.810;8.872;2023-09-19T07:14:39;96560.63;;;15.07;95.91
3697;BME280;60662;48.810;8.872;2023-09-19T07:15:42;96564.41;;;15.16;94.96
3697;BME280;60662;48.810;8.872;2023-09-19T07:16:48;96558.09;;;15.33;93.79
3697;BME280;60662;48.810;8.872;2023-09-19T07:17:54;96566.94;;;15.45;93.41
3697;BME280;60662;48.810;8.872;2023-09-19T07:18:57;96562.03;;;15.53;93.13
3697;BME280;60662;48.810;8.872;2023-09-19T07:19:59;96561.50;;;15.88;91.94
3697;BME280;60662;48.810;8.872;2023-09-19T07:21:01;96560.44;;;15.91;91.85
3697;BME280;60662;48.810;8.872;2023-09-19T07:22:06;96562.34;;;16.14;91.33
3697;BME280;60662;48.810;8.872;2023-09-19T07:23:09;96563.94;;;16.17;90.65
3697;BME280;60662;48.810;8.872;2023-09-19T07:24:10;96560.16;;;16.34;90.29
3697;BME280;60662;48.810;8.872;2023-09-19T07:25:12;96566.78;;;16.40;89.68
3697;BME280;60662;48.810;8.872;2023-09-19T07:26:15;96574.56;;;16.67;89.20
3697;BME280;60662;48.810;8.872;2023-09-19T07:27:17;96571.63;;;16.59;88.62
3697;BME280;60662;48.810;8.872;2023-09-19T07:28:19;96568.84;;;16.73;86.59
3697;BME280;60662;48.810;8.872;2023-09-19T07:29:21;96570.78;;;16.58;87.13
3697;BME280;60662;48.810;8.872;2023-09-19T07:30:22;96570.16;;;16.55;88.28
3697;BME280;60662;48.810;8.872;2023-09-19T07:31:24;96561.41;;;16.41;89.46
3697;BME280;60662;48.810;8.872;2023-09-19T07:32:26;96565.94;;;16.39;89.27
3697;BME280;60662;48.810;8.872;2023-09-19T07:37:17;96574.13;;;15.83;90.97
3697;BME280;60662;48.810;8.872;2023-09-19T07:38:18;96577.63;;;16.09;90.94
3697;BME280;60662;48.810;8.872;2023-09-19T07:39:20;96574.88;;;16.11;89.49
3697;BME280;60662;48.810;8.872;2023-09-19T07:40:24;96575.63;;;16.26;87.30
3697;BME280;60662;48.810;8.872;2023-09-19T07:41:28;96571.41;;;16.36;87.73
3697;BME280;60662;48.810;8.872;2023-09-19T07:42:31;96575.44;;;16.42;89.65
3697;BME280;60662;48.810;8.872;2023-09-19T07:43:33;96577.63;;;16.35;88.64
3697;BME280;60662;48.810;8.872;2023-09-19T07:44:35;96578.38;;;16.50;88.75
3697;BME280;60662;48.810;8.872;2023-09-19T07:45:37;96576.88;;;16.59;87.76
3697;BME280;60662;48.810;8.872;2023-09-19T07:46:39;96571.94;;;16.67;88.73
3697;BME280;60662;48.810;8.872;2023-09-19T07:47:44;96569.72;;;16.48;86.78
3697;BME280;60662;48.810;8.872;2023-09-19T07:48:47;96578.34;;;16.63;85.48
3697;BME280;60662;48.810;8.872;2023-09-19T07:49:50;96573.28;;;16.73;86.22
3697;BME280;60662;48.810;8.872;2023-09-19T07:50:51;96573.59;;;16.68;85.46
3697;BME280;60662;48.810;8.872;2023-09-19T07:51:53;96571.63;;;16.46;86.02
3697;BME280;60662;48.810;8.872;2023-09-19T07:52:56;96576.28;;;16.29;87.48
3697;BME280;60662;48.810;8.872;2023-09-19T07:53:57;96575.97;;;16.34;86.69
3697;BME280;60662;48.810;8.872;2023-09-19T07:54:59;96572.19;;;16.25;86.71
3697;BME280;60662;48.810;8.872;2023-09-19T07:56:07;96578.69;;;16.20;88.37
3697;BME280;60662;48.810;8.872;2023-09-19T07:57:09;96586.41;;;16.23;88.41
3697;BME280;60662;48.810;8.872;2023-09-19T07:58:10;96586.28;;;16.11;88.59
3697;BME280;60662;48.810;8.872;2023-09-19T07:59:12;96589.44;;;16.04;87.91
3697;BME280;60662;48.810;8.872;2023-09-19T08:00:15;96585.22;;;16.01;87.00
3697;BME280;60662;48.810;8.872;2023-09-19T08:01:16;96585.75;;;16.06;88.07
3697;BME280;60662;48.810;8.872;2023-09-19T08:03:40;96595.25;;;16.22;88.75
3697;BME280;60662;48.810;8.872;2023-09-19T08:06:03;96596.59;;;16.14;88.16
3697;BME280;60662;48.810;8.872;2023-09-19T08:07:05;96599.75;;;16.20;88.24
3697;BME280;60662;48.810;8.872;2023-09-19T08:08:07;96599.13;;;16.29;86.88
3697;BME280;60662;48.810;8.872;2023-09-19T08:09:08;96593.34;;;16.37;86.26
3697;BME280;60662;48.810;8.872;2023-09-19T08:10:12;96591.13;;;16.56;86.49
3697;BME280;60662;48.810;8.872;2023-09-19T08:11:14;96596.44;;;17.06;86.18
3697;BME280;60662;48.810;8.872;2023-09-19T08:12:22;96597.94;;;17.35;85.35
3697;BME280;60662;48.810;8.872;2023-09-19T08:13:24;96602.28;;;17.47;85.37
3697;BME280;60662;48.810;8.872;2023-09-19T08:14:26;96604.22;;;17.45;82.21
3697;BME280;60662;48.810;8.872;2023-09-19T08:15:27;96604.59;;;17.27;82.62
3697;BME280;60662;48.810;8.872;2023-09-19T08:16:29;96601.34;;;17.24;82.49
3697;BME280;60662;48.810;8.872;2023-09-19T08:17:34;96601.09;;;17.03;85.01
3697;BME280;60662;48.810;8.872;2023-09-19T08:18:37;96600.94;;;17.17;82.54
3697;BME280;60662;48.810;8.872;2023-09-19T08:19:41;96607.97;;;17.29;83.14
3697;BME280;60662;48.810;8.872;2023-09-19T08:20:50;96608.31;;;17.49;82.89
3697;BME280;60662;48.810;8.872;2023-09-19T08:21:52;96607.16;;;17.89;79.97
3697;BME280;60662;48.810;8.872;2023-09-19T08:22:54;96606.31;;;18.24;78.66
3697;BME280;60662;48.810;8.872;2023-09-19T08:23:56;96610.22;;;18.42;77.92
3697;BME280;60662;48.810;8.872;2023-09-19T08:24:58;96609.03;;;18.69;76.04
3697;BME280;60662;48.810;8.872;2023-09-19T08:26:00;96612.03;;;18.65;75.76
3697;BME280;60662;48.810;8.872;2023-09-19T08:27:08;96611.44;;;19.06;75.20
3697;BME280;60662;48.810;8.872;2023-09-19T08:28:11;96613.31;;;19.27;75.74
3697;BME280;60662;48.810;8.872;2023-09-19T08:29:13;96608.66;;;19.08;75.33
3697;BME280;60662;48.810;8.872;2023-09-19T08:30:17;96612.97;;;18.64;74.93
3697;BME280;60662;48.810;8.872;2023-09-19T08:31:25;96611.19;;;18.87;74.52
3697;BME280;60662;48.810;8.872;2023-09-19T08:32:28;96612.00;;;18.42;76.01
3697;BME280;60662;48.810;8.872;2023-09-19T08:33:34;96611.44;;;18.03;78.19
3697;BME280;60662;48.810;8.872;2023-09-19T08:34:36;96620.50;;;18.23;77.34
3697;BME280;60662;48.810;8.872;2023-09-19T08:35:40;96618.38;;;18.51;76.63
3697;BME280;60662;48.810;8.872;2023-09-19T08:36:42;96619.53;;;18.24;77.29
3697;BME280;60662;48.810;8.872;2023-09-19T08:37:46;96612.16;;;18.05;77.80
3697;BME280;60662;48.810;8.872;2023-09-19T08:38:48;96624.50;;;18.63;77.93
3697;BME280;60662;48.810;8.872;2023-09-19T08:39:50;96619.16;;;18.98;73.93
3697;BME280;60662;48.810;8.872;2023-09-19T08:40:52;96620.38;;;19.49;73.61
3697;BME280;60662;48.810;8.872;2023-09-19T08:41:57;96621.00;;;19.41;71.24
3697;BME280;60662;48.810;8.872;2023-09-19T08:43:00;96616.81;;;19.28;71.58
3697;BME280;60662;48.810;8.872;2023-09-19T08:44:01;96618.16;;;19.11;70.12
3697;BME280;60662;48.810;8.872;2023-09-19T08:45:05;96612.28;;;19.07;70.23
3697;BME280;60662;48.810;8.872;2023-09-19T08:46:15;96625.09;;;19.34;69.92
3697;BME280;60662;48.810;8.872;2023-09-19T08:47:27;96612.66;;;18.91;70.21
3697;BME280;60662;48.810;8.872;2023-09-19T08:48:32;96629.69;;;18.64;70.78
3697;BME280;60662;48.810;8.872;2023-09-19T08:50:49;96626.78;;;18.44;71.53
3697;BME280;60662;48.810;8.872;2023-09-19T08:52:01;96625.38;;;18.86;70.95
3697;BME280;60662;48.810;8.872;2023-09-19T08:53:10;96624.06;;;19.03;70.28
3697;BME280;60662;48.810;8.872;2023-09-19T08:54:22;96625.94;;;18.33;72.46
3697;BME280;60662;48.810;8.872;2023-09-19T08:55:28;96627.63;;;18.79;71.86
3697;BME280;60662;48.810;8.872;2023-09-19T08:56:31;96629.00;;;19.07;71.61
3697;BME280;60662;48.810;8.872;2023-09-19T08:57:35;96629.59;;;19.22;70.82
3697;BME280;60662;48.810;8.872;2023-09-19T08:58:48;96634.44;;;18.95;70.91
3697;BME280;60662;48.810;8.872;2023-09-19T08:59:52;96632.88;;;18.92;70.70
3697;BME280;60662;48.810;8.872;2023-09-19T09:00:57;96633.19;;;18.65;70.94
3697;BME280;60662;48.810;8.872;2023-09-19T09:02:02;96634.88;;;18.66;69.56
3697;BME280;60662;48.810;8.872;2023-09-19T09:03:09;96635.69;;;18.77;70.06
3697;BME280;60662;48.810;8.872;2023-09-19T09:04:11;96638.41;;;18.31;69.73
3697;BME280;60662;48.810;8.872;2023-09-19T09:05:15;96638.34;;;18.08;69.83
3697;BME280;60662;48.810;8.872;2023-09-19T09:06:19;96635.59;;;18.09;71.18
3697;BME280;60662;48.810;8.872;2023-09-19T09:07:21;96639.47;;;17.92;71.07
3697;BME280;60662;48.810;8.872;2023-09-19T09:08:24;96633.63;;;17.76;70.81
3697;BME280;60662;48.810;8.872;2023-09-19T09:09:28;96630.63;;;17.69;71.24
3697;BME280;60662;48.810;8.872;2023-09-19T09:10:29;96629.22;;;18.01;70.30
3697;BME280;60662;48.810;8.872;2023-09-19T09:11:33;96632.31;;;18.41;69.96
3697;BME280;60662;48.810;8.872;2023-09-19T09:12:35;96635.94;;;18.52;69.18
3697;BME280;60662;48.810;8.872;2023-09-19T09:13:37;96630.41;;;18.08;69.89
3697;BME280;60662;48.810;8.872;2023-09-19T09:14:44;96638.78;;;17.66;69.59
3697;BME280;60662;48.810;8.872;2023-09-19T09:15:47;96644.94;;;18.02;70.83
3697;BME280;60662;48.810;8.872;2023-09-19T09:16:49;96641.22;;;17.81;71.12
3697;BME280;60662;48.810;8.872;2023-09-19T09:17:51;96639.81;;;17.63;71.49
3697;BME280;60662;48.810;8.872;2023-09-19T09:18:57;96642.88;;;17.94;70.37
3697;BME280;60662;48.810;8.872;2023-09-19T09:19:58;96633.13;;;17.71;69.23
3697;BME280;60662;48.810;8.872;2023-09-19T09:21:00;96643.06;;;17.43;71.35
3697;BME280;60662;48.810;8.872;2023-09-19T09:22:11;96640.28;;;17.33;72.23
3697;BME280;60662;48.810;8.872;2023-09-19T09:23:13;96631.44;;;17.45;71.80
3697;BME280;60662;48.810;8.872;2023-09-19T09:24:31;96636.19;;;17.89;71.08
3697;BME280;60662;48.810;8.872;2023-09-19T09:25:52;96641.22;;;18.05;71.75
3697;BME280;60662;48.810;8.872;2023-09-19T09:26:57;96643.06;;;17.91;71.44
3697;BME280;60662;48.810;8.872;2023-09-19T09:28:00;96641.94;;;17.95;71.92
3697;BME280;60662;48.810;8.872;2023-09-19T09:29:03;96636.28;;;17.76;70.12
3697;BME280;60662;48.810;8.872;2023-09-19T09:30:05;96645.78;;;17.54;69.94
3697;BME280;60662;48.810;8.872;2023-09-19T09:31:22;96643.59;;;17.97;69.65
3697;BME280;60662;48.810;8.872;2023-09-19T09:32:31;96642.06;;;18.05;68.14
3697;BME280;60662;48.810;8.872;2023-09-19T09:33:40;96643.31;;;18.24;67.60
3697;BME280;60662;48.810;8.872;2023-09-19T09:34:43;96640.41;;;18.04;68.39
3697;BME280;60662;48.810;8.872;2023-09-19T09:35:55;96644.25;;;17.87;69.51
3697;BME280;60662;48.810;8.872;2023-09-19T09:37:04;96646.69;;;17.66;70.02
3697;BME280;60662;48.810;8.872;2023-09-19T09:38:06;96642.06;;;17.57;70.13
3697;BME280;60662;48.810;8.872;2023-09-19T09:39:10;96649.66;;;18.10;68.21
3697;BME280;60662;48.810;8.872;2023-09-19T09:40:45;96648.91;;;17.84;67.97
3697;BME280;60662;48.810;8.872;2023-09-19T09:41:47;96646.06;;;17.62;69.30
3697;BME280;60662;48.810;8.872;2023-09-19T09:42:48;96637.66;;;17.44;69.24
3697;BME280;60662;48.810;8.872;2023-09-19T09:43:53;96644.63;;;17.21;70.05
3697;BME280;60662;48.810;8.872;2023-09-19T09:45:19;96651.53;;;17.35;70.48
3697;BME280;60662;48.810;8.872;2023-09-19T09:46:30;96644.44;;;17.49;70.42
3697;BME280;60662;48.810;8.872;2023-09-19T09:47:51;96647.94;;;18.56;67.24
3697;BME280;60662;48.810;8.872;2023-09-19T09:49:03;96635.03;;;19.65;64.67
3697;BME280;60662;48.810;8.872;2023-09-19T09:50:47;96645.72;;;20.07;63.15
3697;BME280;60662;48.810;8.872;2023-09-19T09:51:51;96648.09;;;19.78;63.48
3697;BME280;60662;48.810;8.872;2023-09-19T09:53:00;96638.63;;;19.64;63.39
3697;BME280;60662;48.810;8.872;2023-09-19T09:54:11;96644.34;;;19.80;63.61
3697;BME280;60662;48.810;8.872;2023-09-19T09:55:16;96642.56;;;19.37;64.70
3697;BME280;60662;48.810;8.872;2023-09-19T09:56:20;96642.34;;;19.72;64.15
3697;BME280;60662;48.810;8.872;2023-09-19T09:57:22;96640.50;;;19.84;63.17
3697;BME280;60662;48.810;8.872;2023-09-19T09:58:26;96637.50;;;19.78;64.06
3697;BME280;60662;48.810;8.872;2023-09-19T09:59:51;96645.47;;;20.52;61.12
3697;BME280;60662;48.810;8.872;2023-09-19T10:00:59;96641.72;;;20.55;60.39
3697;BME280;60662;48.810;8.872;2023-09-19T10:02:01;96643.25;;;21.10;59.48
3697;BME280;60662;48.810;8.872;2023-09-19T10:03:19;96641.81;;;20.96;58.77
3697;BME280;60662;48.810;8.872;2023-09-19T10:04:29;96638.34;;;21.05;58.68
3697;BME280;60662;48.810;8.872;2023-09-19T10:05:44;96640.19;;;21.55;58.00
3697;BME280;60662;48.810;8.872;2023-09-19T10:06:46;96637.44;;;22.45;56.29
3697;BME280;60662;48.810;8.872;2023-09-19T10:07:51;96635.84;;;22.62;54.92
3697;BME280;60662;48.810;8.872;2023-09-19T10:09:02;96637.63;;;23.19;54.26
3697;BME280;60662;48.810;8.872;2023-09-19T10:10:13;96629.72;;;21.63;57.29
3697;BME280;60662;48.810;8.872;2023-09-19T10:11:17;96633.78;;;22.07;56.09
3697;BME280;60662;48.810;8.872;2023-09-19T10:12:21;96634.91;;;22.24;55.56
3697;BME280;60662;48.810;8.872;2023-09-19T10:13:25;96633.50;;;22.39;55.15
3697;BME280;60662;48.810;8.872;2023-09-19T10:14:33;96630.31;;;22.83;54.71
3697;BME280;60662;48.810;8.872;2023-09-19T10:15:36;96627.81;;;23.19;53.99
3697;BME280;60662;48.810;8.872;2023-09-19T10:16:48;96629.75;;;23.17;53.03
3697;BME280;60662;48.810;8.872;2023-09-19T10:17:50;96632.75;;;22.66;53.43
3697;BME280;60662;48.810;8.872;2023-09-19T10:18:58;96624.88;;;22.75;53.74
3697;BME280;60662;48.810;8.872;2023-09-19T10:20:03;96622.16;;;23.22;53.19
3697;BME280;60662;48.810;8.872;2023-09-19T10:21:20;96630.47;;;23.09;53.92
3697;BME280;60662;48.810;8.872;2023-09-19T10:22:24;96626.66;;;23.22;54.00
3697;BME280;60662;48.810;8.872;2023-09-19T10:23:28;96618.53;;;23.23;53.42
3697;BME280;60662;48.810;8.872;2023-09-19T10:24:36;96628.59;;;22.54;54.16
3697;BME280;60662;48.810;8.872;2023-09-19T10:25:58;96628.03;;;22.50;55.13
3697;BME280;60662;48.810;8.872;2023-09-19T10:27:00;96618.25;;;22.89;55.02
3697;BME280;60662;48.810;8.872;2023-09-19T10:28:05;96619.28;;;23.61;53.72
3697;BME280;60662;48.810;8.872;2023-09-19T10:29:14;96623.44;;;23.46;52.71
3697;BME280;60662;48.810;8.872;2023-09-19T10:30:17;96613.31;;;23.50;53.19
3697;BME280;60662;48.810;8.872;2023-09-19T10:31:20;96615.69;;;23.53;53.22
3697;BME280;60662;48.810;8.872;2023-09-19T10:32:23;96616.09;;;23.02;53.16
3697;BME280;60662;48.810;8.872;2023-09-19T10:33:25;96623.38;;;22.62;53.14
3697;BME280;60662;48.810;8.872;2023-09-19T10:34:29;96615.00;;;22.28;53.46
3697;BME280;60662;48.810;8.872;2023-09-19T10:35:32;96623.28;;;22.44;53.50
3697;BME280;60662;48.810;8.872;2023-09-19T10:36:36;96627.28;;;20.90;56.20
3697;BME280;60662;48.810;8.872;2023-09-19T10:37:38;96614.03;;;20.05;58.38
3697;BME280;60662;48.810;8.872;2023-09-19T10:38:43;96625.72;;;19.70;59.64
3697;BME280;60662;48.810;8.872;2023-09-19T10:39:48;96641.00;;;19.34;60.79
3697;BME280;60662;48.810;8.872;2023-09-19T10:40:52;96626.69;;;19.14;61.43
3697;BME280;60662;48.810;8.872;2023-09-19T10:41:55;96619.50;;;18.93;62.49
3697;BME280;60662;48.810;8.872;2023-09-19T10:43:02;96624.44;;;18.98;63.23
3697;BME280;60662;48.810;8.872;2023-09-19T10:44:05;96624.09;;;19.58;61.97
3697;BME280;60662;48.810;8.872;2023-09-19T10:45:08;96624.47;;;19.53;62.85
3697;BME280;60662;48.810;8.872;2023-09-19T10:46:14;96634.50;;;19.27;62.46
3697;BME280;60662;48.810;8.872;2023-09-19T10:47:16;96627.28;;;19.29;62.57
3697;BME280;60662;48.810;8.872;2023-09-19T10:48:20;96631.16;;;19.25;61.89
3697;BME280;60662;48.810;8.872;2023-09-19T10:49:28;96639.06;;;19.80;61.20
3697;BME280;60662;48.810;8.872;2023-09-19T10:51:02;96621.56;;;20.21;59.22
3697;BME280;60662;48.810;8.872;2023-09-19T10:52:06;96628.25;;;19.83;60.44
3697;BME280;60662;48.810;8.872;2023-09-19T10:53:13;96617.44;;;19.31;61.05
3697;BME280;60662;48.810;8.872;2023-09-19T10:54:17;96624.13;;;20.12;59.73
3697;BME280;60662;48.810;8.872;2023-09-19T10:55:20;96632.34;;;19.76;59.99
3697;BME280;60662;48.810;8.872;2023-09-19T10:56:30;96628.50;;;19.36;60.76
3697;BME280;60662;48.810;8.872;2023-09-19T10:57:34;96626.25;;;20.60;57.79
3697;BME280;60662;48.810;8.872;2023-09-19T10:58:35;96626.97;;;20.41;58.44
3697;BME280;60662;48.810;8.872;2023-09-19T11:00:00;96626.44;;;19.84;60.11
3697;BME280;60662;48.810;8.872;2023-09-19T11:01:04;96622.69;;;19.86;61.14
3697;BME280;60662;48.810;8.872;2023-09-19T11:02:17;96618.50;;;20.26;60.43
3697;BME280;60662;48.810;8.872;2023-09-19T11:03:21;96622.44;;;20.11;60.61
3697;BME280;60662;48.810;8.872;2023-09-19T11:04:31;96625.31;;;21.43;57.40
3697;BME280;60662;48.810;8.872;2023-09-19T11:05:35;96622.44;;;22.44;55.49
3697;BME280;60662;48.810;8.872;2023-09-19T11:06:41;96624.63;;;23.34;54.36
3697;BME280;60662;48.810;8.872;2023-09-19T11:07:58;96614.69;;;22.98;54.03
3697;BME280;60662;48.810;8.872;2023-09-19T11:09:06;96618.03;;;23.38;52.15
3697;BME280;60662;48.810;8.872;2023-09-19T11:10:51;96613.31;;;22.94;50.84
3697;BME280;60662;48.810;8.872;2023-09-19T11:11:53;96602.47;;;21.81;53.13
3697;BME280;60662;48.810;8.872;2023-09-19T11:12:55;96635.75;;;21.85;53.17
3697;BME280;60662;48.810;8.872;2023-09-19T11:26:43;96619.09;;;21.93;51.62
3697;BME280;60662;48.810;8.872;2023-09-19T11:29:27;96603.72;;;20.02;56.51
3697;BME280;60662;48.810;8.872;2023-09-19T11:30:30;96610.53;;;19.84;57.45
3697;BME280;60662;48.810;8.872;2023-09-19T11:31:43;96599.94;;;19.84;58.49
3697;BME280;60662;48.810;8.872;2023-09-19T11:38:15;96601.69;;;21.30;55.94
3697;BME280;60662;48.810;8.872;2023-09-19T11:39:26;96606.91;;;22.20;54.59
3697;BME280;60662;48.810;8.872;2023-09-19T11:40:28;96599.16;;;22.56;52.38
3697;BME280;60662;48.810;8.872;2023-09-19T11:41:39;96597.78;;;22.89;52.92
3697;BME280;60662;48.810;8.872;2023-09-19T11:42:47;96602.31;;;21.92;54.17
3697;BME280;60662;48.810;8.872;2023-09-19T11:45:07;96602.59;;;22.09;54.26
3697;BME280;60662;48.810;8.872;2023-09-19T11:46:08;96591.78;;;21.51;54.86
3697;BME280;60662;48.810;8.872;2023-09-19T11:47:10;96597.94;;;22.21;54.67
3697;BME280;60662;48.810;8.872;2023-09-19T11:48:14;96604.06;;;23.26;52.56
3697;BME280;60662;48.810;8.872;2023-09-19T11:49:17;96600.16;;;23.30;51.83
3697;BME280;60662;48.810;8.872;2023-09-19T11:50:25;96594.31;;;22.79;52.97
3697;BME280;60662;48.810;8.872;2023-09-19T11:51:26;96596.19;;;21.92;53.39
3697;BME280;60662;48.810;8.872;2023-09-19T11:52:31;96588.81;;;21.35;54.95
3697;BME280;60662;48.810;8.872;2023-09-19T11:53:36;96590.94;;;21.41;55.28
3697;BME280;60662;48.810;8.872;2023-09-19T11:54:42;96595.25;;;21.52;54.94
3697;BME280;60662;48.810;8.872;2023-09-19T11:55:44;96593.47;;;22.21;53.68
3697;BME280;60662;48.810;8.872;2023-09-19T11:56:48;96594.75;;;21.97;53.95
3697;BME280;60662;48.810;8.872;2023-09-19T11:57:54;96586.88;;;21.47;55.53
3697;BME280;60662;48.810;8.872;2023-09-19T11:58:56;96593.22;;;20.95;56.64
3697;BME280;60662;48.810;8.872;2023-09-19T11:59:59;96599.00;;;21.20;57.22
3697;BME280;60662;48.810;8.872;2023-09-19T12:01:05;96590.97;;;21.90;54.41
3697;BME280;60662;48.810;8.872;2023-09-19T12:02:35;96591.41;;;21.66;54.58
3697;BME280;60662;48.810;8.872;2023-09-19T12:03:42;96595.28;;;22.21;53.34
3697;BME280;60662;48.810;8.872;2023-09-19T12:04:53;96598.34;;;22.45;52.48
3697;BME280;60662;48.810;8.872;2023-09-19T12:05:55;96585.59;;;22.49;52.99
3697;BME280;60662;48.810;8.872;2023-09-19T12:06:56;96584.56;;;22.70;52.46
3697;BME280;60662;48.810;8.872;2023-09-19T12:07:59;96587.63;;;21.98;54.00
3697;BME280;60662;48.810;8.872;2023-09-19T12:09:01;96579.16;;;21.24;54.11
3697;BME280;60662;48.810;8.872;2023-09-19T12:10:08;96582.03;;;22.11;53.17
3697;BME280;60662;48.810;8.872;2023-09-19T12:11:14;96581.69;;;22.43;51.91
3697;BME280;60662;48.810;8.872;2023-09-19T12:12:24;96581.94;;;22.88;51.76
3697;BME280;60662;48.810;8.872;2023-09-19T12:13:29;96574.63;;;22.99;51.03
3697;BME280;60662;48.810;8.872;2023-09-19T12:14:32;96568.09;;;23.40;49.90
3697;BME280;60662;48.810;8.872;2023-09-19T12:15:35;96572.78;;;23.92;49.69
3697;BME280;60662;48.810;8.872;2023-09-19T12:16:40;96565.91;;;23.35;50.25
3697;BME280;60662;48.810;8.872;2023-09-19T12:17:42;96559.88;;;23.51;50.42
3697;BME280;60662;48.810;8.872;2023-09-19T12:18:45;96570.09;;;22.82;51.44
3697;BME280;60662;48.810;8.872;2023-09-19T12:19:51;96573.44;;;22.46;50.99
3697;BME280;60662;48.810;8.872;2023-09-19T12:20:53;96580.25;;;22.59;51.10
3697;BME280;60662;48.810;8.872;2023-09-19T12:22:03;96572.69;;;22.64;50.66
3697;BME280;60662;48.810;8.872;2023-09-19T12:23:13;96575.69;;;22.31;50.80
3697;BME280;60662;48.810;8.872;2023-09-19T12:24:15;96566.16;;;22.76;51.25
3697;BME280;60662;48.810;8.872;2023-09-19T12:25:20;96559.03;;;23.05;50.96
3697;BME280;60662;48.810;8.872;2023-09-19T12:26:23;96559.28;;;23.57;50.53
3697;BME280;60662;48.810;8.872;2023-09-19T12:27:25;96561.81;;;24.48;49.75
3697;BME280;60662;48.810;8.872;2023-09-19T12:28:28;96557.50;;;24.73;49.17
3697;BME280;60662;48.810;8.872;2023-09-19T12:29:48;96553.22;;;22.91;51.30
3697;BME280;60662;48.810;8.872;2023-09-19T12:30:50;96562.19;;;22.90;51.60
3697;BME280;60662;48.810;8.872;2023-09-19T12:31:54;96551.88;;;22.77;51.51
3697;BME280;60662;48.810;8.872;2023-09-19T12:32:59;96567.47;;;23.00;51.33
3697;BME280;60662;48.810;8.872;2023-09-19T12:34:01;96555.31;;;23.25;51.14
3697;BME280;60662;48.810;8.872;2023-09-19T12:35:02;96551.88;;;23.51;50.97
3697;BME280;60662;48.810;8.872;2023-09-19T12:36:22;96546.19;;;24.00;50.50
3697;BME280;60662;48.810;8.872;2023-09-19T12:37:35;96556.28;;;23.42;51.14
3697;BME280;60662;48.810;8.872;2023-09-19T12:38:37;96553.56;;;23.52;51.83
3697;BME280;60662;48.810;8.872;2023-09-19T12:39:40;96544.41;;;24.09;49.88
3697;BME280;60662;48.810;8.872;2023-09-19T12:40:47;96555.53;;;23.32;51.09
3697;BME280;60662;48.810;8.872;2023-09-19T12:41:52;96549.81;;;22.71;52.66
3697;BME280;60662;48.810;8.872;2023-09-19T12:42:55;96555.00;;;23.28;51.62
3697;BME280;60662;48.810;8.872;2023-09-19T12:43:57;96541.06;;;23.35;50.61
3697;BME280;60662;48.810;8.872;2023-09-19T12:44:59;96552.63;;;22.70;52.01
3697;BME280;60662;48.810;8.872;2023-09-19T12:46:02;96551.28;;;22.56;51.87
3697;BME280;60662;48.810;8.872;2023-09-19T12:47:15;96546.78;;;21.89;52.82
3697;BME280;60662;48.810;8.872;2023-09-19T12:48:25;96544.06;;;23.04;51.81
3697;BME280;60662;48.810;8.872;2023-09-19T12:49:31;96544.34;;;23.28;50.67
3697;BME280;60662;48.810;8.872;2023-09-19T12:50:33;96542.28;;;23.22;50.81
3697;BME280;60662;48.810;8.872;2023-09-19T12:51:35;96543.97;;;23.41;50.62
3697;BME280;60662;48.810;8.872;2023-09-19T12:52:38;96533.78;;;23.19;50.57
3697;BME280;60662;48.810;8.872;2023-09-19T12:53:41;96545.47;;;22.98;51.87
3697;BME280;60662;48.810;8.872;2023-09-19T12:54:47;96541.22;;;23.33;50.81
3697;BME280;60662;48.810;8.872;2023-09-19T12:55:58;96545.56;;;23.06;49.99
3697;BME280;60662;48.810;8.872;2023-09-19T12:56:59;96541.28;;;22.20;51.76
3697;BME280;60662;48.810;8.872;2023-09-19T12:58:13;96535.19;;;21.80;52.47
3697;BME280;60662;48.810;8.872;2023-09-19T12:59:29;96538.00;;;21.79;53.28
3697;BME280;60662;48.810;8.872;2023-09-19T13:00:36;96542.13;;;22.11;54.13
3697;BME280;60662;48.810;8.872;2023-09-19T13:01:39;96540.00;;;22.24;52.99
3697;BME280;60662;48.810;8.872;2023-09-19T13:05:21;96534.63;;;21.77;53.42
3697;BME280;60662;48.810;8.872;2023-09-19T13:06:35;96536.56;;;21.84;54.38
3697;BME280;60662;48.810;8.872;2023-09-19T13:07:43;96533.78;;;21.57;53.83
3697;BME280;60662;48.810;8.872;2023-09-19T13:08:45;96540.09;;;21.65;54.78
3697;BME280;60662;48.810;8.872;2023-09-19T13:10:05;96533.75;;;21.47;54.36
3697;BME280;60662;48.810;8.872;2023-09-19T13:11:13;96532.66;;;21.40;54.84
3697;BME280;60662;48.810;8.872;2023-09-19T13:12:35;96536.25;;;21.29;55.02
3697;BME280;60662;48.810;8.872;2023-09-19T13:13:42;96536.69;;;21.44;55.23
3697;BME280;60662;48.810;8.872;2023-09-19T13:15:07;96535.84;;;21.53;55.21
3697;BME280;60662;48.810;8.872;2023-09-19T13:16:11;96532.53;;;21.80;54.48
3697;BME280;60662;48.810;8.872;2023-09-19T13:17:16;96540.50;;;21.71;54.57
3697;BME280;60662;48.810;8.872;2023-09-19T13:18:18;96535.53;;;22.25;53.32
3697;BME280;60662;48.810;8.872;2023-09-19T13:19:41;96533.06;;;23.53;51.94
3697;BME280;60662;48.810;8.872;2023-09-19T13:20:43;96538.94;;;23.38;50.49
3697;BME280;60662;48.810;8.872;2023-09-19T13:21:50;96534.44;;;23.75;50.74
3697;BME280;60662;48.810;8.872;2023-09-19T13:22:56;96529.34;;;24.00;49.07
3697;BME280;60662;48.810;8.872;2023-09-19T13:24:22;96525.22;;;24.32;49.24
3697;BME280;60662;48.810;8.872;2023-09-19T13:25:24;96530.13;;;24.44;48.38